sensor_id;sensor_type;location;lat;lon;timestamp;pressure;altitude;pressure_sealevel;temperature;humidity
20009;BME280;10165;42.662;23.260;2022-11-20T00:00:56;93382.69;;;18.25;55.02
20009;BME280;10165;42.662;23.260;2022-11-20T00:03:22;93344.63;;;18.39;54.45
20009;BME280;10165;42.662;23.260;2022-11-20T00:05:49;93343.63;;;18.30;54.95
20009;BME280;10165;42.662;23.260;2022-11-20T00:08:16;93373.56;;;18.66;53.96
20009;BME280;10165;42.662;23.260;2022-11-20T00:10:43;93333.72;;;19.09;52.11
20009;BME280;10165;42.662;23.260;2022-11-20T00:13:10;93344.81;;;19.34;51.73
20009;BME280;10165;42.662;23.260;2022-11-20T00:15:36;93353.97;;;19.21;52.02
20009;BME280;10165;42.662;23.260;2022-11-20T00:18:03;93341.00;;;19.32;51.94
20009;BME280;10165;42.662;23.260;2022-11-20T00:20:30;93326.31;;;18.93;51.31
20009;BME280;10165;42.662;23.260;2022-11-20T00:22:56;93359.22;;;19.31;51.32
20009;BME280;10165;42.662;23.260;2022-11-20T00:25:23;93327.59;;;18.66;52.33
20009;BME280;10165;42.662;23.260;2022-11-20T00:27:50;93320.31;;;19.22;51.74
20009;BME280;10165;42.662;23.260;2022-11-20T00:30:17;93330.19;;;19.12;51.17
20009;BME280;10165;42.662;23.260;2022-11-20T00:32:43;93331.56;;;19.00;51.85
20009;BME280;10165;42.662;23.260;2022-11-20T00:35:10;93296.03;;;19.18;51.95
20009;BME280;10165;42.662;23.260;2022-11-20T00:37:37;93348.09;;;18.63;53.18
20009;BME280;10165;42.662;23.260;2022-11-20T00:40:04;93337.31;;;18.36;53.95
20009;BME280;10165;42.662;23.260;2022-11-20T00:42:30;93316.22;;;18.94;52.59
20009;BME280;10165;42.662;23.260;2022-11-20T00:44:59;93347.38;;;19.41;50.90
20009;BME280;10165;42.662;23.260;2022-11-20T00:47:25;93357.94;;;18.96;51.68
20009;BME280;10165;42.662;23.260;2022-11-20T00:49:52;93351.56;;;19.06;51.38
20009;BME280;10165;42.662;23.260;2022-11-20T00:52:19;93368.75;;;18.77;53.04
20009;BME280;10165;42.662;23.260;2022-11-20T00:54:45;93350.88;;;19.22;52.54
20009;BME280;10165;42.662;23.260;2022-11-20T00:57:12;93375.69;;;18.97;52.40
20009;BME280;10165;42.662;23.260;2022-11-20T00:59:39;93352.59;;;19.32;52.21
20009;BME280;10165;42.662;23.260;2022-11-20T01:02:05;93351.16;;;18.65;54.14
20009;BME280;10165;42.662;23.260;2022-11-20T01:04:32;93355.22;;;18.77;52.85
20009;BME280;10165;42.662;23.260;2022-11-20T01:06:59;93361.53;;;18.70;53.94
20009;BME280;10165;42.662;23.260;2022-11-20T01:09:25;93335.84;;;18.58;54.30
20009;BME280;10165;42.662;23.260;2022-11-20T01:11:52;93340.56;;;18.51;54.46
20009;BME280;10165;42.662;23.260;2022-11-20T01:14:19;93345.88;;;18.58;53.88
20009;BME280;10165;42.662;23.260;2022-11-20T01:16:48;93314.00;;;18.46;53.91
20009;BME280;10165;42.662;23.260;2022-11-20T01:19:18;93332.63;;;18.63;53.77
20009;BME280;10165;42.662;23.260;2022-11-20T01:21:50;93317.75;;;18.95;53.30
20009;BME280;10165;42.662;23.260;2022-11-20T01:24:18;93324.34;;;18.74;52.79
20009;BME280;10165;42.662;23.260;2022-11-20T01:26:48;93325.94;;;19.11;52.31
20009;BME280;10165;42.662;23.260;2022-11-20T01:29:17;93309.09;;;19.23;51.89
20009;BME280;10165;42.662;23.260;2022-11-20T01:31:45;93317.75;;;19.34;51.23
20009;BME280;10165;42.662;23.260;2022-11-20T01:34:19;93298.94;;;19.47;50.97
20009;BME280;10165;42.662;23.260;2022-11-20T01:36:45;93289.84;;;18.98;51.89
20009;BME280;10165;42.662;23.260;2022-11-20T01:39:23;93308.94;;;18.91;52.31
20009;BME280;10165;42.662;23.260;2022-11-20T01:41:51;93305.31;;;19.17;51.29
20009;BME280;10165;42.662;23.260;2022-11-20T01:44:54;93289.44;;;18.80;51.66
20009;BME280;10165;42.662;23.260;2022-11-20T01:50:04;93303.50;;;18.71;51.84
20009;BME280;10165;42.662;23.260;2022-11-20T01:52:39;93289.34;;;18.40;53.01
20009;BME280;10165;42.662;23.260;2022-11-20T01:55:10;93303.19;;;19.08;51.53
20009;BME280;10165;42.662;23.260;2022-11-20T01:57:40;93321.00;;;18.86;52.24
20009;BME280;10165;42.662;23.260;2022-11-20T02:00:10;93304.66;;;18.50;52.56
20009;BME280;10165;42.662;23.260;2022-11-20T02:02:39;93310.25;;;18.83;52.16
20009;BME280;10165;42.662;23.260;2022-11-20T02:05:30;93325.19;;;18.91;51.67
20009;BME280;10165;42.662;23.260;2022-11-20T02:07:59;93340.75;;;18.63;53.35
20009;BME280;10165;42.662;23.260;2022-11-20T02:10:26;93326.22;;;18.77;53.26
20009;BME280;10165;42.662;23.260;2022-11-20T02:12:53;93326.63;;;18.76;53.01
20009;BME280;10165;42.662;23.260;2022-11-20T02:15:39;93334.25;;;18.81;52.89
20009;BME280;10165;42.662;23.260;2022-11-20T02:18:07;93336.88;;;18.65;52.54
20009;BME280;10165;42.662;23.260;2022-11-20T02:20:36;93349.72;;;18.80;52.88
20009;BME280;10165;42.662;23.260;2022-11-20T02:23:06;93327.97;;;18.41;53.11
20009;BME280;10165;42.662;23.260;2022-11-20T02:25:36;93343.88;;;18.62;52.97
20009;BME280;10165;42.662;23.260;2022-11-20T02:28:03;93343.38;;;19.10;52.30
20009;BME280;10165;42.662;23.260;2022-11-20T02:30:31;93334.41;;;18.74;52.91
20009;BME280;10165;42.662;23.260;2022-11-20T02:32:58;93339.09;;;18.23;53.62
20009;BME280;10165;42.662;23.260;2022-11-20T02:37:53;93320.84;;;18.54;53.12
20009;BME280;10165;42.662;23.260;2022-11-20T02:40:21;93341.31;;;18.75;53.00
20009;BME280;10165;42.662;23.260;2022-11-20T02:42:55;93340.44;;;18.81;53.12
20009;BME280;10165;42.662;23.260;2022-11-20T02:45:22;93338.50;;;18.82;53.23
20009;BME280;10165;42.662;23.260;2022-11-20T02:47:50;93352.16;;;18.51;53.97
20009;BME280;10165;42.662;23.260;2022-11-20T02:50:17;93355.53;;;18.32;54.50
20009;BME280;10165;42.662;23.260;2022-11-20T02:52:43;93357.75;;;18.14;55.34
20009;BME280;10165;42.662;23.260;2022-11-20T02:55:10;93377.19;;;18.55;54.87
20009;BME280;10165;42.662;23.260;2022-11-20T02:57:37;93367.59;;;19.17;53.11
20009;BME280;10165;42.662;23.260;2022-11-20T03:00:04;93386.31;;;18.88;53.93
20009;BME280;10165;42.662;23.260;2022-11-20T03:02:31;93373.78;;;18.28;56.03
20009;BME280;10165;42.662;23.260;2022-11-20T03:04:58;93369.44;;;18.07;56.70
20009;BME280;10165;42.662;23.260;2022-11-20T03:07:25;93374.69;;;18.18;56.57
20009;BME280;10165;42.662;23.260;2022-11-20T03:09:52;93382.09;;;18.14;56.52
20009;BME280;10165;42.662;23.260;2022-11-20T03:12:18;93359.50;;;18.51;55.47
20009;BME280;10165;42.662;23.260;2022-11-20T03:14:45;93363.31;;;18.30;55.60
20009;BME280;10165;42.662;23.260;2022-11-20T03:17:18;93345.22;;;18.27;56.06
20009;BME280;10165;42.662;23.260;2022-11-20T03:19:44;93381.28;;;17.90;57.28
20009;BME280;10165;42.662;23.260;2022-11-20T03:22:11;93377.53;;;18.34;56.45
20009;BME280;10165;42.662;23.260;2022-11-20T03:24:38;93366.44;;;18.52;55.36
20009;BME280;10165;42.662;23.260;2022-11-20T03:27:04;93358.44;;;18.68;54.80
20009;BME280;10165;42.662;23.260;2022-11-20T03:29:31;93360.91;;;18.59;54.41
20009;BME280;10165;42.662;23.260;2022-11-20T03:31:58;93359.41;;;18.58;54.65
20009;BME280;10165;42.662;23.260;2022-11-20T03:34:25;93368.50;;;18.68;54.08
20009;BME280;10165;42.662;23.260;2022-11-20T03:36:52;93376.38;;;18.35;55.39
20009;BME280;10165;42.662;23.260;2022-11-20T03:39:18;93360.66;;;18.27;55.92
20009;BME280;10165;42.662;23.260;2022-11-20T03:41:45;93362.84;;;18.35;55.27
20009;BME280;10165;42.662;23.260;2022-11-20T03:44:12;93371.19;;;17.94;56.42
20009;BME280;10165;42.662;23.260;2022-11-20T03:46:39;93378.44;;;18.01;56.05
20009;BME280;10165;42.662;23.260;2022-11-20T03:49:05;93384.44;;;18.12;55.62
20009;BME280;10165;42.662;23.260;2022-11-20T03:51:34;93361.97;;;18.65;54.05
20009;BME280;10165;42.662;23.260;2022-11-20T03:54:05;93397.63;;;18.60;54.41
20009;BME280;10165;42.662;23.260;2022-11-20T03:56:35;93389.47;;;18.10;55.68
20009;BME280;10165;42.662;23.260;2022-11-20T03:59:03;93383.25;;;18.13;55.43
20009;BME280;10165;42.662;23.260;2022-11-20T04:01:32;93409.28;;;18.30;54.85
20009;BME280;10165;42.662;23.260;2022-11-20T04:04:00;93399.34;;;18.47;54.36
20009;BME280;10165;42.662;23.260;2022-11-20T04:06:29;93398.41;;;18.07;55.49
20009;BME280;10165;42.662;23.260;2022-11-20T04:08:57;93402.25;;;18.33;55.26
20009;BME280;10165;42.662;23.260;2022-11-20T04:11:31;93403.53;;;18.98;53.12
20009;BME280;10165;42.662;23.260;2022-11-20T04:14:00;93383.63;;;18.15;54.76
20009;BME280;10165;42.662;23.260;2022-11-20T04:16:33;93393.34;;;18.36;54.31
20009;BME280;10165;42.662;23.260;2022-11-20T04:19:01;93378.97;;;18.66;53.83
20009;BME280;10165;42.662;23.260;2022-11-20T04:21:29;93386.09;;;18.56;53.63
20009;BME280;10165;42.662;23.260;2022-11-20T04:23:56;93388.97;;;18.69;53.73
20009;BME280;10165;42.662;23.260;2022-11-20T04:26:25;93398.69;;;19.09;52.61
20009;BME280;10165;42.662;23.260;2022-11-20T04:28:52;93395.88;;;18.46;53.83
20009;BME280;10165;42.662;23.260;2022-11-20T04:31:24;93401.50;;;18.32;54.88
20009;BME280;10165;42.662;23.260;2022-11-20T04:33:51;93408.38;;;18.63;54.32
20009;BME280;10165;42.662;23.260;2022-11-20T04:36:20;93410.72;;;18.11;55.92
20009;BME280;10165;42.662;23.260;2022-11-20T04:38:54;93397.03;;;18.72;54.37
20009;BME280;10165;42.662;23.260;2022-11-20T04:41:26;93407.97;;;18.38;55.08
20009;BME280;10165;42.662;23.260;2022-11-20T04:43:55;93408.88;;;18.05;55.97
20009;BME280;10165;42.662;23.260;2022-11-20T04:46:29;93407.84;;;18.22;55.50
20009;BME280;10165;42.662;23.260;2022-11-20T04:48:56;93392.09;;;18.40;55.21
20009;BME280;10165;42.662;23.260;2022-11-20T04:51:23;93380.56;;;18.36;54.60
20009;BME280;10165;42.662;23.260;2022-11-20T04:53:50;93381.22;;;18.21;55.74
20009;BME280;10165;42.662;23.260;2022-11-20T04:56:17;93383.06;;;18.50;55.15
20009;BME280;10165;42.662;23.260;2022-11-20T04:58:47;93391.28;;;18.20;55.22
20009;BME280;10165;42.662;23.260;2022-11-20T05:01:18;93383.88;;;18.24;55.83
20009;BME280;10165;42.662;23.260;2022-11-20T05:03:46;93385.69;;;18.57;54.78
20009;BME280;10165;42.662;23.260;2022-11-20T05:06:15;93364.63;;;17.95;56.12
20009;BME280;10165;42.662;23.260;2022-11-20T05:08:42;93348.66;;;18.54;54.78
20009;BME280;10165;42.662;23.260;2022-11-20T05:11:11;93355.13;;;18.34;54.62
20009;BME280;10165;42.662;23.260;2022-11-20T05:13:39;93347.00;;;18.10;55.69
20009;BME280;10165;42.662;23.260;2022-11-20T05:16:17;93345.59;;;18.49;53.64
20009;BME280;10165;42.662;23.260;2022-11-20T05:18:45;93347.13;;;18.96;52.87
20009;BME280;10165;42.662;23.260;2022-11-20T05:21:13;93338.56;;;18.98;52.99
20009;BME280;10165;42.662;23.260;2022-11-20T05:23:40;93357.09;;;18.56;54.01
20009;BME280;10165;42.662;23.260;2022-11-20T05:26:12;93342.63;;;18.43;53.98
20009;BME280;10165;42.662;23.260;2022-11-20T05:28:42;93335.00;;;18.61;53.59
20009;BME280;10165;42.662;23.260;2022-11-20T05:31:11;93335.81;;;18.12;54.94
20009;BME280;10165;42.662;23.260;2022-11-20T05:33:42;93341.00;;;17.99;55.14
20009;BME280;10165;42.662;23.260;2022-11-20T05:36:11;93362.50;;;18.06;55.57
20009;BME280;10165;42.662;23.260;2022-11-20T05:38:38;93341.28;;;17.82;56.28
20009;BME280;10165;42.662;23.260;2022-11-20T05:41:12;93362.94;;;18.05;55.84
20009;BME280;10165;42.662;23.260;2022-11-20T05:43:42;93335.28;;;17.67;55.93
20009;BME280;10165;42.662;23.260;2022-11-20T05:46:10;93342.63;;;18.20;54.65
20009;BME280;10165;42.662;23.260;2022-11-20T05:48:38;93350.72;;;18.20;54.84
20009;BME280;10165;42.662;23.260;2022-11-20T05:51:08;93349.69;;;18.60;52.53
20009;BME280;10165;42.662;23.260;2022-11-20T05:53:35;93341.50;;;18.64;52.57
20009;BME280;10165;42.662;23.260;2022-11-20T05:56:14;93361.91;;;17.95;54.14
20009;BME280;10165;42.662;23.260;2022-11-20T05:58:41;93386.50;;;18.04;54.57
20009;BME280;10165;42.662;23.260;2022-11-20T06:01:25;93380.69;;;18.29;53.52
20009;BME280;10165;42.662;23.260;2022-11-20T06:04:09;93385.44;;;18.72;52.66
20009;BME280;10165;42.662;23.260;2022-11-20T06:06:36;93380.28;;;19.00;51.88
20009;BME280;10165;42.662;23.260;2022-11-20T06:09:02;93377.22;;;18.98;51.49
20009;BME280;10165;42.662;23.260;2022-11-20T06:11:29;93367.75;;;18.40;53.30
20009;BME280;10165;42.662;23.260;2022-11-20T06:13:56;93400.03;;;18.54;52.85
20009;BME280;10165;42.662;23.260;2022-11-20T06:16:23;93399.66;;;18.76;52.70
20009;BME280;10165;42.662;23.260;2022-11-20T06:18:49;93397.44;;;18.71;52.40
20009;BME280;10165;42.662;23.260;2022-11-20T06:21:19;93393.78;;;18.81;52.01
20009;BME280;10165;42.662;23.260;2022-11-20T06:23:46;93419.88;;;18.91;51.80
20009;BME280;10165;42.662;23.260;2022-11-20T06:26:16;93427.19;;;18.71;52.12
20009;BME280;10165;42.662;23.260;2022-11-20T06:28:43;93409.38;;;18.73;51.40
20009;BME280;10165;42.662;23.260;2022-11-20T06:31:12;93404.16;;;19.05;51.85
20009;BME280;10165;42.662;23.260;2022-11-20T06:33:40;93406.31;;;19.14;51.11
20009;BME280;10165;42.662;23.260;2022-11-20T06:36:07;93413.97;;;18.76;51.54
20009;BME280;10165;42.662;23.260;2022-11-20T06:38:39;93402.16;;;19.09;50.87
20009;BME280;10165;42.662;23.260;2022-11-20T06:41:21;93419.81;;;19.37;51.00
20009;BME280;10165;42.662;23.260;2022-11-20T06:43:48;93413.03;;;19.06;51.05
20009;BME280;10165;42.662;23.260;2022-11-20T06:46:16;93417.75;;;19.02;51.21
20009;BME280;10165;42.662;23.260;2022-11-20T06:48:47;93406.25;;;18.75;52.61
20009;BME280;10165;42.662;23.260;2022-11-20T06:51:14;93418.19;;;18.54;51.44
20009;BME280;10165;42.662;23.260;2022-11-20T06:53:41;93401.47;;;18.82;51.49
20009;BME280;10165;42.662;23.260;2022-11-20T06:56:08;93411.47;;;19.28;50.13
20009;BME280;10165;42.662;23.260;2022-11-20T06:58:35;93441.38;;;18.55;52.32
20009;BME280;10165;42.662;23.260;2022-11-20T07:01:09;93429.78;;;19.01;52.13
20009;BME280;10165;42.662;23.260;2022-11-20T07:03:36;93438.66;;;19.44;50.81
20009;BME280;10165;42.662;23.260;2022-11-20T07:06:04;93430.00;;;19.53;51.34
20009;BME280;10165;42.662;23.260;2022-11-20T07:08:31;93441.41;;;18.98;52.67
20009;BME280;10165;42.662;23.260;2022-11-20T07:11:00;93444.25;;;18.91;53.43
20009;BME280;10165;42.662;23.260;2022-11-20T07:13:28;93429.16;;;18.70;54.13
20009;BME280;10165;42.662;23.260;2022-11-20T07:15:55;93428.84;;;18.88;53.62
20009;BME280;10165;42.662;23.260;2022-11-20T07:18:25;93427.16;;;18.47;53.40
20009;BME280;10165;42.662;23.260;2022-11-20T07:20:51;93424.38;;;18.28;53.90
20009;BME280;10165;42.662;23.260;2022-11-20T07:23:18;93428.72;;;18.72;52.79
20009;BME280;10165;42.662;23.260;2022-11-20T07:25:45;93445.66;;;18.76;53.35
20009;BME280;10165;42.662;23.260;2022-11-20T07:28:11;93420.34;;;19.09;51.48
20009;BME280;10165;42.662;23.260;2022-11-20T07:30:38;93432.25;;;18.69;53.82
20009;BME280;10165;42.662;23.260;2022-11-20T07:33:05;93436.69;;;19.02;52.54
20009;BME280;10165;42.662;23.260;2022-11-20T07:35:32;93430.72;;;18.91;52.04
20009;BME280;10165;42.662;23.260;2022-11-20T07:37:59;93410.63;;;19.12;51.67
20009;BME280;10165;42.662;23.260;2022-11-20T07:40:25;93433.00;;;19.16;51.76
20009;BME280;10165;42.662;23.260;2022-11-20T07:42:54;93431.72;;;18.77;53.19
20009;BME280;10165;42.662;23.260;2022-11-20T07:45:23;93424.84;;;18.96;52.42
20009;BME280;10165;42.662;23.260;2022-11-20T07:47:50;93425.31;;;19.34;51.19
20009;BME280;10165;42.662;23.260;2022-11-20T07:50:18;93418.41;;;19.09;50.76
20009;BME280;10165;42.662;23.260;2022-11-20T07:52:45;93412.72;;;19.04;50.75
20009;BME280;10165;42.662;23.260;2022-11-20T07:55:12;93430.13;;;19.46;49.91
20009;BME280;10165;42.662;23.260;2022-11-20T07:57:39;93447.94;;;19.24;49.89
20009;BME280;10165;42.662;23.260;2022-11-20T08:00:08;93458.13;;;19.79;48.30
20009;BME280;10165;42.662;23.260;2022-11-20T08:02:42;93443.94;;;19.71;49.35
20009;BME280;10165;42.662;23.260;2022-11-20T08:05:09;93446.56;;;19.94;49.76
20009;BME280;10165;42.662;23.260;2022-11-20T08:07:40;93464.31;;;19.36;51.20
20009;BME280;10165;42.662;23.260;2022-11-20T08:10:09;93429.19;;;18.90;52.77
20009;BME280;10165;42.662;23.260;2022-11-20T08:12:35;93438.31;;;18.99;53.37
20009;BME280;10165;42.662;23.260;2022-11-20T08:15:21;93441.25;;;18.62;54.20
20009;BME280;10165;42.662;23.260;2022-11-20T08:17:48;93443.88;;;19.12;53.33
20009;BME280;10165;42.662;23.260;2022-11-20T08:20:35;93449.78;;;19.70;51.95
20009;BME280;10165;42.662;23.260;2022-11-20T08:23:04;93455.06;;;19.96;51.05
20009;BME280;10165;42.662;23.260;2022-11-20T08:25:36;93470.69;;;20.25;51.72
20009;BME280;10165;42.662;23.260;2022-11-20T08:28:05;93480.81;;;19.45;51.63
20009;BME280;10165;42.662;23.260;2022-11-20T08:30:45;93481.81;;;19.32;53.65
20009;BME280;10165;42.662;23.260;2022-11-20T08:33:12;93482.22;;;19.53;53.30
20009;BME280;10165;42.662;23.260;2022-11-20T08:35:39;93479.47;;;19.34;53.87
20009;BME280;10165;42.662;23.260;2022-11-20T08:38:08;93479.41;;;19.37;54.06
20009;BME280;10165;42.662;23.260;2022-11-20T08:40:35;93482.72;;;19.02;56.37
20009;BME280;10165;42.662;23.260;2022-11-20T08:43:02;93519.69;;;18.89;57.58
20009;BME280;10165;42.662;23.260;2022-11-20T08:45:28;93533.19;;;18.05;63.47
20009;BME280;10165;42.662;23.260;2022-11-20T08:48:00;93539.03;;;18.30;64.07
20009;BME280;10165;42.662;23.260;2022-11-20T08:50:28;93510.97;;;17.15;67.57
20009;BME280;10165;42.662;23.260;2022-11-20T08:53:04;93524.97;;;17.82;66.73
20009;BME280;10165;42.662;23.260;2022-11-20T08:55:31;93503.00;;;17.80;67.30
20009;BME280;10165;42.662;23.260;2022-11-20T08:57:58;93503.31;;;17.48;67.61
20009;BME280;10165;42.662;23.260;2022-11-20T09:00:24;93509.84;;;17.13;68.26
20009;BME280;10165;42.662;23.260;2022-11-20T09:02:51;93510.97;;;17.90;66.32
20009;BME280;10165;42.662;23.260;2022-11-20T09:05:18;93510.59;;;17.58;66.36
20009;BME280;10165;42.662;23.260;2022-11-20T09:07:45;93527.56;;;17.55;68.60
20009;BME280;10165;42.662;23.260;2022-11-20T09:10:12;93522.94;;;17.55;67.81
20009;BME280;10165;42.662;23.260;2022-11-20T09:12:54;93526.28;;;17.26;70.13
20009;BME280;10165;42.662;23.260;2022-11-20T09:15:22;93532.31;;;17.44;70.48
20009;BME280;10165;42.662;23.260;2022-11-20T09:18:00;93516.13;;;17.40;68.98
20009;BME280;10165;42.662;23.260;2022-11-20T09:20:28;93535.53;;;17.69;67.39
20009;BME280;10165;42.662;23.260;2022-11-20T09:22:56;93526.38;;;17.56;66.65
20009;BME280;10165;42.662;23.260;2022-11-20T09:25:23;93526.44;;;16.60;70.38
20009;BME280;10165;42.662;23.260;2022-11-20T09:27:59;93521.88;;;17.05;68.24
20009;BME280;10165;42.662;23.260;2022-11-20T09:30:26;93522.72;;;16.95;69.98
20009;BME280;10165;42.662;23.260;2022-11-20T09:32:53;93512.09;;;16.73;71.94
20009;BME280;10165;42.662;23.260;2022-11-20T09:35:20;93503.69;;;16.64;72.66
20009;BME280;10165;42.662;23.260;2022-11-20T09:37:47;93480.25;;;17.02;71.87
20009;BME280;10165;42.662;23.260;2022-11-20T09:40:20;93465.41;;;17.25;69.61
20009;BME280;10165;42.662;23.260;2022-11-20T09:43:11;93457.19;;;17.35;69.91
20009;BME280;10165;42.662;23.260;2022-11-20T09:48:19;93456.13;;;17.26;66.33
20009;BME280;10165;42.662;23.260;2022-11-20T09:56:20;93450.09;;;18.39;66.49
20009;BME280;10165;42.662;23.260;2022-11-20T09:58:52;93440.84;;;18.63;66.79
20009;BME280;10165;42.662;23.260;2022-11-20T10:01:30;93444.19;;;18.44;67.27
20009;BME280;10165;42.662;23.260;2022-11-20T10:04:24;93418.72;;;18.92;65.32
20009;BME280;10165;42.662;23.260;2022-11-20T10:09:59;93436.19;;;19.30;60.59
20009;BME280;10165;42.662;23.260;2022-11-20T10:12:56;93443.25;;;19.04;62.65
20009;BME280;10165;42.662;23.260;2022-11-20T10:21:11;93444.94;;;18.95;64.36
20009;BME280;10165;42.662;23.260;2022-11-20T10:31:39;93443.53;;;18.37;68.21
20009;BME280;10165;42.662;23.260;2022-11-20T10:34:23;93448.13;;;18.67;67.95
20009;BME280;10165;42.662;23.260;2022-11-20T10:37:00;93442.31;;;18.14;67.30
20009;BME280;10165;42.662;23.260;2022-11-20T10:42:11;93443.66;;;18.56;68.46
20009;BME280;10165;42.662;23.260;2022-11-20T10:44:48;93443.91;;;17.51;72.04
20009;BME280;10165;42.662;23.260;2022-11-20T10:47:32;93444.00;;;17.41;73.52
20009;BME280;10165;42.662;23.260;2022-11-20T10:50:04;93455.25;;;17.36;75.42
20009;BME280;10165;42.662;23.260;2022-11-20T10:53:00;93461.44;;;17.33;75.70
20009;BME280;10165;42.662;23.260;2022-11-20T10:55:46;93471.53;;;16.88;78.18
20009;BME280;10165;42.662;23.260;2022-11-20T11:00:45;93498.09;;;16.89;78.85
20009;BME280;10165;42.662;23.260;2022-11-20T11:03:27;93550.63;;;16.01;81.17
20009;BME280;10165;42.662;23.260;2022-11-20T11:08:28;93557.75;;;14.96;80.29
20009;BME280;10165;42.662;23.260;2022-11-20T11:11:01;93527.72;;;15.40;71.34
20009;BME280;10165;42.662;23.260;2022-11-20T11:13:30;93522.63;;;15.81;69.61
20009;BME280;10165;42.662;23.260;2022-11-20T11:15:57;93507.94;;;15.96;67.73
20009;BME280;10165;42.662;23.260;2022-11-20T11:20:55;93506.56;;;15.42;69.07
20009;BME280;10165;42.662;23.260;2022-11-20T11:23:34;93501.94;;;15.46;69.68
20009;BME280;10165;42.662;23.260;2022-11-20T11:26:05;93482.78;;;15.23;69.92
20009;BME280;10165;42.662;23.260;2022-11-20T11:28:32;93498.88;;;15.37;71.36
20009;BME280;10165;42.662;23.260;2022-11-20T11:30:59;93477.25;;;15.72;69.11
20009;BME280;10165;42.662;23.260;2022-11-20T11:33:30;93491.88;;;15.75;68.86
20009;BME280;10165;42.662;23.260;2022-11-20T11:36:02;93474.31;;;15.28;69.03
20009;BME280;10165;42.662;23.260;2022-11-20T11:38:39;93453.53;;;15.39;66.87
20009;BME280;10165;42.662;23.260;2022-11-20T11:41:08;93475.75;;;15.61;66.90
20009;BME280;10165;42.662;23.260;2022-11-20T11:43:36;93475.13;;;15.21;68.42
20009;BME280;10165;42.662;23.260;2022-11-20T11:46:33;93461.66;;;15.28;68.03
20009;BME280;10165;42.662;23.260;2022-11-20T11:54:57;93471.97;;;15.44;64.58
20009;BME280;10165;42.662;23.260;2022-11-20T12:00:21;93456.19;;;15.53;66.23
20009;BME280;10165;42.662;23.260;2022-11-20T12:13:03;93462.75;;;15.52;63.84
20009;BME280;10165;42.662;23.260;2022-11-20T12:15:33;93453.88;;;15.45;64.01
20009;BME280;10165;42.662;23.260;2022-11-20T12:18:00;93456.41;;;15.94;63.35
20009;BME280;10165;42.662;23.260;2022-11-20T12:20:37;93479.06;;;16.00;64.13
20009;BME280;10165;42.662;23.260;2022-11-20T12:26:10;93469.56;;;15.74;64.63
20009;BME280;10165;42.662;23.260;2022-11-20T12:29:09;93500.00;;;16.34;61.80
20009;BME280;10165;42.662;23.260;2022-11-20T12:31:52;93470.03;;;16.28;63.04
20009;BME280;10165;42.662;23.260;2022-11-20T12:39:52;93400.94;;;16.48;61.24
20009;BME280;10165;42.662;23.260;2022-11-20T12:42:23;93402.19;;;16.37;62.72
20009;BME280;10165;42.662;23.260;2022-11-20T12:48:21;93380.19;;;16.45;58.15
20009;BME280;10165;42.662;23.260;2022-11-20T13:08:11;93398.59;;;17.66;58.04
20009;BME280;10165;42.662;23.260;2022-11-20T13:14:04;93414.13;;;17.58;61.40
20009;BME280;10165;42.662;23.260;2022-11-20T13:16:19;93425.25;;;16.41;64.10
20009;BME280;10165;42.662;23.260;2022-11-20T13:18:51;93443.81;;;15.70;66.80
20009;BME280;10165;42.662;23.260;2022-11-20T13:21:21;93448.84;;;16.30;67.24
20009;BME280;10165;42.662;23.260;2022-11-20T13:23:48;93447.94;;;15.89;67.67
20009;BME280;10165;42.662;23.260;2022-11-20T13:26:20;93454.41;;;16.60;66.61
20009;BME280;10165;42.662;23.260;2022-11-20T13:29:09;93468.72;;;16.50;66.66
20009;BME280;10165;42.662;23.260;2022-11-20T13:31:41;93458.16;;;15.31;71.22
20009;BME280;10165;42.662;23.260;2022-11-20T13:34:22;93456.16;;;16.30;68.76
20009;BME280;10165;42.662;23.260;2022-11-20T13:36:53;93448.03;;;16.85;65.61
20009;BME280;10165;42.662;23.260;2022-11-20T13:39:27;93445.38;;;16.81;65.84
20009;BME280;10165;42.662;23.260;2022-11-20T13:41:56;93450.84;;;15.39;69.99
20009;BME280;10165;42.662;23.260;2022-11-20T13:46:57;93466.84;;;16.44;67.67
20009;BME280;10165;42.662;23.260;2022-11-20T13:49:33;93473.59;;;16.69;67.33
20009;BME280;10165;42.662;23.260;2022-11-20T14:00:29;93475.13;;;16.15;68.94
20009;BME280;10165;42.662;23.260;2022-11-20T14:05:56;93473.75;;;15.86;69.23
20009;BME280;10165;42.662;23.260;2022-11-20T14:11:21;93470.84;;;16.21;68.04
20009;BME280;10165;42.662;23.260;2022-11-20T14:16:22;93469.53;;;16.47;67.17
20009;BME280;10165;42.662;23.260;2022-11-20T14:18:49;93470.81;;;16.29;68.07
20009;BME280;10165;42.662;23.260;2022-11-20T14:21:27;93477.19;;;15.90;70.25
20009;BME280;10165;42.662;23.260;2022-11-20T14:24:05;93468.78;;;15.77;70.09
20009;BME280;10165;42.662;23.260;2022-11-20T14:26:33;93466.84;;;15.82;71.10
20009;BME280;10165;42.662;23.260;2022-11-20T14:29:00;93467.25;;;15.76;70.52
20009;BME280;10165;42.662;23.260;2022-11-20T14:31:27;93474.75;;;16.10;69.36
20009;BME280;10165;42.662;23.260;2022-11-20T14:33:55;93481.66;;;16.14;68.65
20009;BME280;10165;42.662;23.260;2022-11-20T14:36:24;93484.00;;;16.12;68.44
20009;BME280;10165;42.662;23.260;2022-11-20T14:38:52;93479.97;;;15.69;68.22
20009;BME280;10165;42.662;23.260;2022-11-20T14:41:22;93490.31;;;15.77;67.51
20009;BME280;10165;42.662;23.260;2022-11-20T14:43:59;93487.06;;;15.10;68.29
20009;BME280;10165;42.662;23.260;2022-11-20T14:46:27;93485.09;;;15.24;67.91
20009;BME280;10165;42.662;23.260;2022-11-20T14:48:56;93485.44;;;15.37;67.34
20009;BME280;10165;42.662;23.260;2022-11-20T14:51:43;93492.63;;;15.75;67.18
20009;BME280;10165;42.662;23.260;2022-11-20T14:56:53;93478.72;;;15.88;66.21
20009;BME280;10165;42.662;23.260;2022-11-20T14:59:30;93490.22;;;15.95;65.53